Gambell, Alaska
Current Conditions -  °F | °C
As of 9:36 PM on Friday 19 Dec 2014 (Local Time) from PASA Reporting Station
Overcast Overcast  
Wind Chill:   Ceiling: 800
Heat Index: 19°   Visibility: 10mi
Dew Point: 18°   Wind: 15mph
Humidity: 93%   Direction: 40°NE
Pressure: 29.43"   Gusts: 23mph
Location:  63.78°N, 171.74°W
Report Text: PASA 200636Z AUTO 04013G20KT 10SM OVC008 M07/M08 A2943 RMK AO1
Loading
Personal Weather Stations






























Interactive Weather Map New forecast layout! Learn more

10-Day Weather Forecast

Advertisements
Track Severe Weather on mobile